createdAt,value
2023-05-19T00:00:14.917Z,100680.83
2023-05-19T00:03:09.476Z,100676.66
2023-05-19T00:05:45.823Z,100674.13
2023-05-19T00:08:19.996Z,100672.23
2023-05-19T00:10:53.118Z,100669.49
2023-05-19T00:13:26.475Z,100666.44
2023-05-19T00:15:59.470Z,100660.48
2023-05-19T00:18:31.580Z,100660.87
2023-05-19T00:21:03.772Z,100658.07
2023-05-19T00:23:35.939Z,100659.61
2023-05-19T00:26:08.004Z,100656.29
2023-05-19T00:28:40.310Z,100658.31
2023-05-19T00:31:12.376Z,100657.32
2023-05-19T00:33:44.476Z,100654.75
2023-05-19T00:36:16.718Z,100652.91
2023-05-19T00:38:48.854Z,100649.63
2023-05-19T00:41:21.124Z,100652.58
2023-05-19T00:43:53.708Z,100653.12
2023-05-19T00:46:26.020Z,100649.52
2023-05-19T00:48:58.353Z,100649.25
2023-05-19T00:51:31.507Z,100645.37
2023-05-19T00:54:04.016Z,100649.78
2023-05-19T00:56:36.390Z,100648.81
2023-05-19T00:59:09.169Z,100645.33
2023-05-19T01:01:41.918Z,100641.69
2023-05-19T01:04:16.972Z,100638.13
2023-05-19T01:06:54.981Z,100638.84
2023-05-19T01:09:27.181Z,100634.64
2023-05-19T01:11:59.900Z,100633.10
2023-05-19T01:14:32.861Z,100637.94
2023-05-19T01:17:15.305Z,100636.71
2023-05-19T01:20:02.325Z,100634.52
2023-05-19T01:22:55.087Z,100634.32
2023-05-19T01:25:50.845Z,100629.94
2023-05-19T01:28:47.743Z,100626.44
2023-05-19T01:31:23.948Z,100628.33
2023-05-19T01:33:58.181Z,100628.64
2023-05-19T01:36:32.907Z,100629.07
2023-05-19T01:39:05.927Z,100625.39
2023-05-19T01:41:39.503Z,100624.75
2023-05-19T01:44:14.762Z,100621.11
2023-05-19T01:46:47.037Z,100620.10
2023-05-19T01:49:19.050Z,100614.55
2023-05-19T01:51:51.941Z,100616.23
2023-05-19T01:54:24.030Z,100617.64
2023-05-19T01:57:06.566Z,100616.23
2023-05-19T01:59:53.736Z,100610.14
2023-05-19T02:02:39.137Z,100612.67
2023-05-19T02:05:19.956Z,100609.52
2023-05-19T02:08:05.900Z,100611.33
2023-05-19T02:10:43.671Z,100611.45
2023-05-19T02:13:19.028Z,100605.96
2023-05-19T02:15:53.401Z,100599.26
2023-05-19T02:18:25.709Z,100593.82
2023-05-19T02:20:57.795Z,100590.84
2023-05-19T02:23:29.999Z,100590.21
2023-05-19T02:26:02.741Z,100590.14
2023-05-19T02:28:34.845Z,100593.48
2023-05-19T02:31:09.134Z,100595.62
2023-05-19T02:33:41.536Z,100596.69
2023-05-19T02:36:15.022Z,100592.81
2023-05-19T02:38:47.057Z,100591.27
2023-05-19T02:41:19.269Z,100591.41
2023-05-19T02:43:51.301Z,100598.39
2023-05-19T02:46:23.414Z,100594.62
2023-05-19T02:48:55.731Z,100590.25
2023-05-19T02:51:27.821Z,100591.98
2023-05-19T02:54:00.075Z,100592.03
2023-05-19T02:56:32.341Z,100591.73
2023-05-19T02:59:04.410Z,100594.77
2023-05-19T03:01:37.882Z,100599.34
2023-05-19T03:04:10.642Z,100598.85
2023-05-19T03:06:45.441Z,100597.59
2023-05-19T03:09:17.512Z,100600.73
2023-05-19T03:11:49.621Z,100601.95
2023-05-19T03:14:24.818Z,100599.96
2023-05-19T03:16:57.319Z,100598.83
2023-05-19T03:19:32.612Z,100598.46
2023-05-19T03:22:05.117Z,100598.52
2023-05-19T03:24:38.450Z,100599.03
2023-05-19T03:27:11.168Z,100602.84
2023-05-19T03:29:43.502Z,100601.39
2023-05-19T03:32:15.726Z,100603.09
2023-05-19T03:34:48.004Z,100599.44
2023-05-19T03:37:20.393Z,100601.83
2023-05-19T03:39:52.559Z,100602.18
2023-05-19T03:42:27.362Z,100601.38
2023-05-19T03:44:59.624Z,100603.95
2023-05-19T03:47:32.866Z,100602.14
2023-05-19T03:50:25.312Z,100602.64
2023-05-19T03:53:01.833Z,100601.72
2023-05-19T03:55:37.480Z,100604.71
2023-05-19T03:58:10.874Z,100606.08
2023-05-19T04:00:43.869Z,100611.63
2023-05-19T04:03:16.169Z,100610.52
2023-05-19T04:05:48.726Z,100612.33
2023-05-19T04:08:21.045Z,100616.90
2023-05-19T04:10:53.274Z,100615.63
2023-05-19T04:13:25.877Z,100615.14
2023-05-19T04:15:58.163Z,100617.64
2023-05-19T04:18:31.714Z,100619.41
2023-05-19T04:21:03.894Z,100617.23
2023-05-19T04:23:36.050Z,100621.60
2023-05-19T04:26:10.366Z,100624.48
2023-05-19T04:28:45.000Z,100622.63
2023-05-19T04:31:17.645Z,100615.15
2023-05-19T04:33:50.308Z,100613.61
2023-05-19T04:36:22.651Z,100611.86
2023-05-19T04:39:02.958Z,100613.80
2023-05-19T04:41:35.596Z,100617.25
2023-05-19T04:44:09.194Z,100609.48
2023-05-19T04:46:42.907Z,100615.61
2023-05-19T04:49:15.654Z,100609.69
2023-05-19T04:51:50.843Z,100612.38
2023-05-19T04:54:29.506Z,100615.89
2023-05-19T04:57:02.202Z,100617.20
2023-05-19T04:59:35.115Z,100619.98
2023-05-19T05:02:07.966Z,100616.95
2023-05-19T05:04:44.261Z,100611.48
2023-05-19T05:07:16.553Z,100612.07
2023-05-19T05:09:49.385Z,100617.23
2023-05-19T05:12:23.188Z,100616.82
2023-05-19T05:14:56.686Z,100611.77
2023-05-19T05:17:29.890Z,100609.39
2023-05-19T05:20:03.404Z,100608.80
2023-05-19T05:22:38.778Z,100606.42
2023-05-19T05:25:14.779Z,100602.59
2023-05-19T05:27:48.063Z,100608.03
2023-05-19T05:30:20.398Z,100609.70
2023-05-19T05:32:52.824Z,100613.38
2023-05-19T05:35:39.463Z,100619.21
2023-05-19T05:38:12.676Z,100626.11
2023-05-19T05:40:45.068Z,100627.27
2023-05-19T05:43:17.449Z,100631.99
2023-05-19T05:45:53.806Z,100636.71
2023-05-19T05:48:27.388Z,100636.32
2023-05-19T05:51:01.174Z,100632.55
2023-05-19T05:53:43.156Z,100631.54
2023-05-19T05:56:17.459Z,100634.12
2023-05-19T05:58:54.486Z,100632.86
2023-05-19T06:01:26.863Z,100633.96
2023-05-19T06:03:59.382Z,100635.36
2023-05-19T06:06:32.921Z,100640.33
2023-05-19T06:09:06.816Z,100639.09
2023-05-19T06:11:39.121Z,100641.63
2023-05-19T06:14:11.679Z,100642.13
2023-05-19T06:17:09.691Z,100647.41
2023-05-19T06:19:42.130Z,100652.42
2023-05-19T06:22:14.627Z,100652.74
2023-05-19T06:24:46.846Z,100650.14
2023-05-19T06:27:19.237Z,100646.26
2023-05-19T06:29:52.252Z,100644.91
2023-05-19T06:32:26.603Z,100645.66
2023-05-19T06:34:58.964Z,100645.42
2023-05-19T06:37:31.232Z,100640.61
2023-05-19T06:40:04.363Z,100639.83
2023-05-19T06:42:37.269Z,100640.13
2023-05-19T06:45:22.507Z,100638.05
2023-05-19T06:47:58.364Z,100642.15
2023-05-19T06:50:31.187Z,100638.33
2023-05-19T06:53:03.788Z,100637.79
2023-05-19T06:55:43.870Z,100637.98
2023-05-19T06:58:24.605Z,100638.77
2023-05-19T07:00:57.377Z,100638.38
2023-05-19T07:03:31.436Z,100640.98
2023-05-19T07:06:05.743Z,100636.27
2023-05-19T07:08:38.405Z,100630.77
2023-05-19T07:11:12.523Z,100636.02
2023-05-19T07:13:45.413Z,100636.67
2023-05-19T07:16:18.105Z,100638.13
2023-05-19T07:18:50.370Z,100639.55
2023-05-19T07:21:22.630Z,100638.29
2023-05-19T07:23:55.481Z,100637.00
2023-05-19T07:26:28.213Z,100640.97
2023-05-19T07:29:00.559Z,100640.87
2023-05-19T07:31:32.886Z,100641.10
2023-05-19T07:34:06.538Z,100638.02
2023-05-19T07:36:38.712Z,100639.79
2023-05-19T07:39:11.183Z,100641.26
2023-05-19T07:41:43.661Z,100640.55
2023-05-19T07:44:15.825Z,100642.02
2023-05-19T07:46:48.095Z,100641.69
2023-05-19T07:49:20.585Z,100642.64
2023-05-19T07:51:53.015Z,100640.70
2023-05-19T07:54:25.125Z,100641.98
2023-05-19T07:56:57.551Z,100639.75
2023-05-19T07:59:29.847Z,100639.74
2023-05-19T08:02:02.232Z,100641.33
2023-05-19T08:04:34.802Z,100645.69
2023-05-19T08:07:07.132Z,100648.63
2023-05-19T08:09:39.578Z,100651.27
2023-05-19T08:12:11.853Z,100648.02
2023-05-19T08:14:44.021Z,100646.96
2023-05-19T08:17:16.460Z,100645.45
2023-05-19T08:19:48.715Z,100649.13
2023-05-19T08:22:20.915Z,100648.30
2023-05-19T08:24:53.007Z,100644.69
2023-05-19T08:27:25.367Z,100645.08
2023-05-19T08:29:57.551Z,100647.94
2023-05-19T08:32:29.717Z,100650.02
2023-05-19T08:35:01.941Z,100648.61
2023-05-19T08:37:34.258Z,100649.35
2023-05-19T08:40:09.077Z,100646.58
2023-05-19T08:42:41.410Z,100643.61
2023-05-19T08:45:14.348Z,100646.64
2023-05-19T08:47:48.812Z,100648.34
2023-05-19T08:50:36.748Z,100651.89
2023-05-19T08:53:28.969Z,100651.90
2023-05-19T08:56:11.428Z,100652.91
2023-05-19T08:58:44.349Z,100651.89
2023-05-19T09:01:18.191Z,100652.46
2023-05-19T09:03:50.948Z,100653.10
2023-05-19T09:06:23.382Z,100650.28
2023-05-19T09:08:58.019Z,100653.03
2023-05-19T09:11:30.747Z,100650.50
2023-05-19T09:14:02.850Z,100647.20
2023-05-19T09:16:35.793Z,100648.48
2023-05-19T09:19:15.637Z,100649.48
2023-05-19T09:21:47.747Z,100649.35
2023-05-19T09:24:20.360Z,100650.78
2023-05-19T09:26:52.410Z,100646.13
2023-05-19T09:29:25.154Z,100645.48
2023-05-19T09:32:01.160Z,100645.61
2023-05-19T09:34:33.838Z,100644.21
2023-05-19T09:37:06.111Z,100640.14
2023-05-19T09:39:39.963Z,100641.14
2023-05-19T09:42:12.124Z,100639.70
2023-05-19T09:44:44.329Z,100641.89
2023-05-19T09:47:18.072Z,100633.14
2023-05-19T09:49:52.284Z,100634.45
2023-05-19T09:52:24.556Z,100636.33
2023-05-19T09:54:58.093Z,100634.98
2023-05-19T09:57:34.610Z,100633.52
2023-05-19T10:00:25.998Z,100632.00
2023-05-19T10:02:58.928Z,100632.48
2023-05-19T10:05:32.700Z,100630.05
2023-05-19T10:08:10.534Z,100626.27
2023-05-19T10:10:42.751Z,100623.79
2023-05-19T10:13:15.710Z,100621.64
2023-05-19T10:18:29.589Z,100622.17
2023-05-19T10:21:03.716Z,100620.65
2023-05-19T10:23:35.941Z,100618.09
2023-05-19T10:26:09.780Z,100611.49
2023-05-19T10:28:44.650Z,100613.47
2023-05-19T10:31:23.498Z,100615.33
2023-05-19T10:34:15.631Z,100611.79
2023-05-19T10:36:51.779Z,100616.87
2023-05-19T10:39:27.964Z,100615.50
2023-05-19T10:42:10.981Z,100618.22
2023-05-19T10:44:59.916Z,100618.80
2023-05-19T10:47:32.703Z,100613.10
2023-05-19T10:50:06.847Z,100614.41
2023-05-19T10:52:41.966Z,100613.90
2023-05-19T10:55:17.765Z,100613.05
2023-05-19T10:57:58.166Z,100612.96
2023-05-19T11:00:34.890Z,100610.52
2023-05-19T11:03:17.906Z,100609.51
2023-05-19T11:05:52.515Z,100610.10
2023-05-19T11:08:36.542Z,100609.76
2023-05-19T11:11:17.809Z,100611.89
2023-05-19T11:13:55.183Z,100614.13
2023-05-19T11:16:35.867Z,100615.91
2023-05-19T11:19:09.529Z,100613.52
2023-05-19T11:21:55.036Z,100613.48
2023-05-19T11:24:44.795Z,100610.30
2023-05-19T11:27:29.193Z,100612.20
2023-05-19T11:30:02.488Z,100608.96
2023-05-19T11:32:36.061Z,100610.28
2023-05-19T11:35:10.460Z,100612.46
2023-05-19T11:37:43.811Z,100610.59
2023-05-19T11:40:18.646Z,100607.87
2023-05-19T11:42:50.915Z,100610.67
2023-05-19T11:45:29.106Z,100610.98
2023-05-19T11:48:04.436Z,100613.16
2023-05-19T11:50:38.451Z,100609.30
2023-05-19T11:53:15.007Z,100610.61
2023-05-19T11:55:49.207Z,100613.30
2023-05-19T11:58:29.119Z,100616.79
2023-05-19T12:01:06.834Z,100612.85
2023-05-19T12:03:39.144Z,100610.55
2023-05-19T12:06:13.659Z,100609.89
2023-05-19T12:08:46.431Z,100609.27
2023-05-19T12:11:20.120Z,100606.84
2023-05-19T12:13:56.571Z,100606.42
2023-05-19T12:16:35.784Z,100604.05
2023-05-19T12:19:09.711Z,100599.65
2023-05-19T12:21:42.392Z,100599.44
2023-05-19T12:24:14.811Z,100597.61
2023-05-19T12:26:47.382Z,100589.98
2023-05-19T12:29:19.482Z,100590.00
2023-05-19T12:31:51.629Z,100589.09
2023-05-19T12:34:24.389Z,100586.84
2023-05-19T12:36:56.806Z,100590.86
2023-05-19T12:39:29.604Z,100591.56
2023-05-19T12:42:09.002Z,100586.38
2023-05-19T12:44:44.082Z,100581.89
2023-05-19T12:47:17.120Z,100577.78
2023-05-19T12:50:02.681Z,100578.15
2023-05-19T12:52:36.226Z,100573.66
2023-05-19T12:55:11.884Z,100576.83
2023-05-19T12:57:46.027Z,100576.01
2023-05-19T13:00:22.040Z,100573.89
2023-05-19T13:03:02.975Z,100570.92
2023-05-19T13:05:39.661Z,100570.45
2023-05-19T13:08:13.591Z,100564.96
2023-05-19T13:10:47.421Z,100565.19
2023-05-19T13:13:19.999Z,100561.08
2023-05-19T13:15:52.469Z,100563.02
2023-05-19T13:18:24.662Z,100567.05
2023-05-19T13:20:57.123Z,100569.50
2023-05-19T13:23:29.577Z,100568.95
2023-05-19T13:26:01.796Z,100566.83
2023-05-19T13:28:34.010Z,100565.94
2023-05-19T13:31:06.427Z,100566.80
2023-05-19T13:33:38.816Z,100569.20
2023-05-19T13:36:10.988Z,100569.02
2023-05-19T13:38:43.062Z,100566.98
2023-05-19T13:41:16.052Z,100563.00
2023-05-19T13:43:48.456Z,100556.92
2023-05-19T13:46:26.635Z,100561.81
2023-05-19T13:49:05.238Z,100563.91
2023-05-19T13:51:37.776Z,100564.05
2023-05-19T13:54:11.609Z,100561.06
2023-05-19T13:56:46.110Z,100558.23
2023-05-19T13:59:18.649Z,100557.88
2023-05-19T14:01:50.784Z,100557.52
2023-05-19T14:04:23.874Z,100555.98
2023-05-19T14:06:57.255Z,100555.30
2023-05-19T14:09:29.870Z,100555.12
2023-05-19T14:12:02.431Z,100551.66
2023-05-19T14:14:34.871Z,100552.37
2023-05-19T14:17:07.509Z,100555.67
2023-05-19T14:19:39.630Z,100559.66
2023-05-19T14:22:13.555Z,100560.54
2023-05-19T14:24:45.596Z,100561.70
2023-05-19T14:27:17.753Z,100567.06
2023-05-19T14:29:50.111Z,100570.85
2023-05-19T14:32:23.247Z,100570.96
2023-05-19T14:34:55.748Z,100572.88
2023-05-19T14:37:29.111Z,100568.70
2023-05-19T14:40:04.649Z,100565.73
2023-05-19T14:42:36.820Z,100567.45
2023-05-19T14:45:10.877Z,100569.01
2023-05-19T14:47:42.983Z,100567.45
2023-05-19T14:50:15.111Z,100563.45
2023-05-19T14:52:47.209Z,100565.17
2023-05-19T14:55:19.446Z,100568.48
2023-05-19T14:57:51.446Z,100567.63
2023-05-19T15:00:26.263Z,100567.11
2023-05-19T15:02:58.598Z,100565.38
2023-05-19T15:05:30.744Z,100566.96
2023-05-19T15:08:06.053Z,100565.38
2023-05-19T15:10:38.457Z,100566.02
2023-05-19T15:13:12.031Z,100569.82
2023-05-19T15:15:44.373Z,100569.27
2023-05-19T15:18:18.920Z,100570.61
2023-05-19T15:20:51.194Z,100572.68
2023-05-19T15:23:23.380Z,100568.64
2023-05-19T15:25:55.619Z,100566.52
2023-05-19T15:28:28.216Z,100564.43
2023-05-19T15:31:00.382Z,100567.33
2023-05-19T15:33:32.527Z,100571.42
2023-05-19T15:36:04.751Z,100570.65
2023-05-19T15:38:38.126Z,100570.95
2023-05-19T15:41:11.924Z,100571.94
2023-05-19T15:43:46.554Z,100568.75
2023-05-19T15:46:19.922Z,100571.67
2023-05-19T15:48:52.025Z,100566.45
2023-05-19T15:51:24.207Z,100566.98
2023-05-19T15:53:56.311Z,100561.80
2023-05-19T15:56:28.390Z,100558.91
2023-05-19T15:59:00.488Z,100561.02
2023-05-19T16:01:32.723Z,100559.26
2023-05-19T16:04:05.164Z,100557.96
2023-05-19T16:06:37.438Z,100558.29
2023-05-19T16:09:09.671Z,100558.42
2023-05-19T16:11:41.884Z,100565.27
2023-05-19T16:14:14.459Z,100569.38
2023-05-19T16:16:46.684Z,100570.35
2023-05-19T16:19:18.965Z,100574.10
2023-05-19T16:21:51.170Z,100573.33
2023-05-19T16:24:23.234Z,100574.19
2023-05-19T16:26:55.773Z,100573.79
2023-05-19T16:29:27.964Z,100572.17
2023-05-19T16:32:00.282Z,100574.34
2023-05-19T16:34:32.737Z,100571.73
2023-05-19T16:37:05.117Z,100571.91
2023-05-19T16:39:38.261Z,100569.60
2023-05-19T16:42:10.461Z,100571.86
2023-05-19T16:44:43.508Z,100566.84
2023-05-19T16:47:15.713Z,100568.20
2023-05-19T16:49:47.890Z,100570.05
2023-05-19T16:52:21.404Z,100568.61
2023-05-19T16:54:53.553Z,100569.91
2023-05-19T16:57:25.894Z,100570.41
2023-05-19T16:59:57.992Z,100569.19
2023-05-19T17:02:30.361Z,100570.02
2023-05-19T17:05:02.548Z,100574.82
2023-05-19T17:07:34.621Z,100570.95
2023-05-19T17:10:07.602Z,100576.27
2023-05-19T17:12:39.729Z,100577.98
2023-05-19T17:15:13.232Z,100579.40
2023-05-19T17:17:45.409Z,100578.92
2023-05-19T17:20:17.971Z,100577.03
2023-05-19T17:22:50.131Z,100578.58
2023-05-19T17:25:22.302Z,100577.21
2023-05-19T17:27:56.005Z,100576.31
2023-05-19T17:30:28.378Z,100581.79
2023-05-19T17:33:01.217Z,100579.34
2023-05-19T17:35:34.398Z,100583.11
2023-05-19T17:38:06.875Z,100582.89
2023-05-19T17:40:41.877Z,100581.31
2023-05-19T17:43:14.367Z,100577.44
2023-05-19T17:45:46.742Z,100576.05
2023-05-19T17:48:19.114Z,100573.56
2023-05-19T17:50:51.708Z,100570.59
2023-05-19T17:53:24.656Z,100573.35
2023-05-19T17:56:01.571Z,100568.48
2023-05-19T17:58:35.176Z,100567.29
2023-05-19T18:01:07.978Z,100572.73
2023-05-19T18:03:41.513Z,100579.33
2023-05-19T18:06:14.000Z,100580.02
2023-05-19T18:08:50.531Z,100581.58
2023-05-19T18:11:24.014Z,100579.90
2023-05-19T18:13:56.391Z,100582.20
2023-05-19T18:16:29.708Z,100581.38
2023-05-19T18:19:02.061Z,100581.83
2023-05-19T18:21:34.424Z,100582.60
2023-05-19T18:24:07.232Z,100586.24
2023-05-19T18:26:42.282Z,100587.66
2023-05-19T18:29:14.815Z,100591.27
2023-05-19T18:31:47.120Z,100591.30
2023-05-19T18:34:19.277Z,100596.66
2023-05-19T18:36:51.543Z,100597.54
2023-05-19T18:39:23.875Z,100600.80
2023-05-19T18:41:56.216Z,100601.57
2023-05-19T18:44:28.505Z,100605.50
2023-05-19T18:47:00.771Z,100607.65
2023-05-19T18:49:33.181Z,100608.58
2023-05-19T18:52:05.559Z,100616.98
2023-05-19T18:54:37.899Z,100617.39
2023-05-19T18:57:10.416Z,100623.17
2023-05-19T18:59:42.842Z,100625.36
2023-05-19T19:02:15.166Z,100626.11
2023-05-19T19:04:47.648Z,100626.27
2023-05-19T19:07:20.178Z,100621.94
2023-05-19T19:09:53.208Z,100620.70
2023-05-19T19:12:26.427Z,100622.95
2023-05-19T19:15:00.289Z,100621.70
2023-05-19T19:17:35.714Z,100624.60
2023-05-19T19:20:11.247Z,100626.33
2023-05-19T19:22:43.591Z,100629.02
2023-05-19T19:25:18.168Z,100628.02
2023-05-19T19:27:50.726Z,100626.95
2023-05-19T19:30:23.045Z,100622.81
2023-05-19T19:32:57.121Z,100620.47
2023-05-19T19:35:29.315Z,100620.61
2023-05-19T19:38:04.405Z,100622.73
2023-05-19T19:40:37.541Z,100623.41
2023-05-19T19:43:10.107Z,100627.20
2023-05-19T19:45:42.539Z,100630.67
2023-05-19T19:48:23.394Z,100631.34
2023-05-19T19:50:58.230Z,100630.86
2023-05-19T19:53:30.924Z,100632.27
2023-05-19T19:56:07.361Z,100631.53
2023-05-19T19:58:39.631Z,100633.50
2023-05-19T20:01:27.937Z,100634.26
2023-05-19T20:04:01.059Z,100637.75
2023-05-19T20:06:33.454Z,100635.17
2023-05-19T20:09:06.031Z,100633.06
2023-05-19T20:11:38.559Z,100633.33
2023-05-19T20:14:10.932Z,100631.01
2023-05-19T20:16:43.211Z,100631.15
2023-05-19T20:19:15.616Z,100628.52
2023-05-19T20:21:47.991Z,100629.81
2023-05-19T20:24:20.164Z,100629.17
2023-05-19T20:26:52.310Z,100633.84
2023-05-19T20:29:24.907Z,100635.55
2023-05-19T20:31:59.210Z,100635.80
2023-05-19T20:34:31.435Z,100638.15
2023-05-19T20:37:03.624Z,100637.77
2023-05-19T20:39:35.848Z,100638.64
2023-05-19T20:42:09.038Z,100641.20
2023-05-19T20:44:41.277Z,100645.42
2023-05-19T20:47:13.431Z,100642.74
2023-05-19T20:49:45.631Z,100641.14
2023-05-19T20:52:20.382Z,100637.83
2023-05-19T20:54:52.698Z,100636.60
2023-05-19T20:57:26.143Z,100637.97
2023-05-19T21:00:48.932Z,100635.20
2023-05-19T21:03:24.322Z,100640.69
2023-05-19T21:05:56.793Z,100635.55
2023-05-19T21:08:29.959Z,100634.09
2023-05-19T21:11:02.198Z,100634.90
2023-05-19T21:13:34.503Z,100632.91
2023-05-19T21:16:09.897Z,100641.31
2023-05-19T21:18:42.145Z,100638.44
2023-05-19T21:21:14.320Z,100639.92
2023-05-19T21:23:46.414Z,100638.16
2023-05-19T21:26:20.051Z,100639.02
2023-05-19T21:28:52.161Z,100644.19
2023-05-19T21:31:24.272Z,100650.73
2023-05-19T21:33:56.563Z,100653.23
2023-05-19T21:36:28.975Z,100657.86
2023-05-19T21:39:03.821Z,100659.67
2023-05-19T21:41:35.862Z,100661.80
2023-05-19T21:44:08.003Z,100660.93
2023-05-19T21:46:45.068Z,100660.99
2023-05-19T21:49:17.613Z,100661.23
2023-05-19T21:51:49.736Z,100658.30
2023-05-19T21:54:21.832Z,100657.49
2023-05-19T21:56:54.004Z,100655.02
2023-05-19T21:59:26.558Z,100648.04
2023-05-19T22:01:59.012Z,100648.05
2023-05-19T22:04:32.874Z,100638.93
2023-05-19T22:07:08.291Z,100637.14
2023-05-19T22:09:40.433Z,100631.77
2023-05-19T22:12:12.730Z,100630.79
2023-05-19T22:14:45.058Z,100625.83
2023-05-19T22:17:17.276Z,100623.48
2023-05-19T22:19:49.532Z,100619.88
2023-05-19T22:22:21.745Z,100620.89
2023-05-19T22:24:53.929Z,100623.00
2023-05-19T22:27:26.157Z,100626.94
2023-05-19T22:29:59.913Z,100624.06
2023-05-19T22:32:32.339Z,100626.89
2023-05-19T22:35:06.622Z,100629.11
2023-05-19T22:37:38.802Z,100629.26
2023-05-19T22:40:14.801Z,100632.38
2023-05-19T22:42:46.943Z,100633.40
2023-05-19T22:45:19.806Z,100634.92
2023-05-19T22:47:52.547Z,100631.41
2023-05-19T22:50:24.930Z,100631.39
2023-05-19T22:52:57.116Z,100628.05
2023-05-19T22:55:29.309Z,100628.23
2023-05-19T22:58:01.492Z,100626.58
2023-05-19T23:00:33.679Z,100624.17
2023-05-19T23:03:05.773Z,100615.56
2023-05-19T23:05:37.986Z,100618.35
2023-05-19T23:08:10.189Z,100612.14
2023-05-19T23:10:42.230Z,100608.34
2023-05-19T23:13:14.292Z,100608.24
2023-05-19T23:15:46.306Z,100604.64
2023-05-19T23:18:18.422Z,100605.00
2023-05-19T23:20:50.586Z,100607.73
2023-05-19T23:23:22.788Z,100609.89
2023-05-19T23:25:54.892Z,100609.85
2023-05-19T23:28:26.986Z,100605.89
2023-05-19T23:30:59.093Z,100603.37
2023-05-19T23:33:31.134Z,100609.76
2023-05-19T23:36:08.817Z,100610.89
2023-05-19T23:38:41.129Z,100613.65
2023-05-19T23:41:13.187Z,100607.95
2023-05-19T23:43:45.271Z,100606.77
2023-05-19T23:46:17.408Z,100603.50
2023-05-19T23:48:49.705Z,100597.16
2023-05-19T23:51:21.757Z,100598.35
2023-05-19T23:53:53.918Z,100602.48
2023-05-19T23:56:26.132Z,100602.29
2023-05-19T23:58:58.229Z,100606.20
